createdAt,value
2018-06-13T00:01:16.016Z,14.04
2018-06-13T00:03:46.167Z,14.05
2018-06-13T00:06:16.528Z,14.08
2018-06-13T00:08:46.499Z,14.11
2018-06-13T00:11:16.634Z,14.16
2018-06-13T00:13:46.527Z,14.17
2018-06-13T00:16:16.559Z,14.21
2018-06-13T00:18:46.621Z,14.24
2018-06-13T00:21:16.562Z,14.26
2018-06-13T00:23:46.562Z,14.29
2018-06-13T00:26:16.624Z,14.33
2018-06-13T00:28:46.915Z,14.36
2018-06-13T00:31:16.825Z,14.37
2018-06-13T00:33:47.151Z,14.39
2018-06-13T00:36:17.295Z,14.43
2018-06-13T00:38:47.553Z,14.44
2018-06-13T00:41:17.537Z,14.47
2018-06-13T00:43:47.939Z,14.50
2018-06-13T00:46:18.277Z,14.54
2018-06-13T00:48:48.718Z,14.59
2018-06-13T00:51:18.983Z,14.62
2018-06-13T00:53:49.204Z,14.66
2018-06-13T00:56:32.705Z,14.68
2018-06-13T00:59:03.632Z,14.69
2018-06-13T01:01:33.804Z,14.66
2018-06-13T01:04:03.786Z,14.68
2018-06-13T01:06:33.727Z,14.67
2018-06-13T01:09:04.279Z,14.64
2018-06-13T01:11:34.231Z,14.65
2018-06-13T01:14:04.349Z,14.63
2018-06-13T01:16:34.461Z,14.61
2018-06-13T01:19:04.485Z,14.62
2018-06-13T01:21:34.642Z,14.63
2018-06-13T01:24:04.614Z,14.60
2018-06-13T01:26:34.714Z,14.61
2018-06-13T01:29:04.782Z,14.63
2018-06-13T01:31:34.965Z,14.63
2018-06-13T01:34:04.957Z,14.65
2018-06-13T01:36:34.996Z,14.66
2018-06-13T01:39:06.876Z,14.66
2018-06-13T01:41:36.955Z,14.62
2018-06-13T01:44:07.069Z,14.59
2018-06-13T01:46:37.217Z,14.58
2018-06-13T01:49:07.381Z,14.57
2018-06-13T01:51:37.677Z,14.54
2018-06-13T01:54:07.811Z,14.54
2018-06-13T01:56:38.313Z,14.57
2018-06-13T01:59:08.544Z,14.58
2018-06-13T02:01:38.495Z,14.55
2018-06-13T02:04:08.718Z,14.54
2018-06-13T02:06:39.016Z,14.53
2018-06-13T02:09:09.305Z,14.55
2018-06-13T02:11:39.448Z,14.54
2018-06-13T02:14:11.350Z,14.53
2018-06-13T02:16:42.369Z,14.55
2018-06-13T02:19:12.384Z,14.58
2018-06-13T02:21:42.615Z,14.57
2018-06-13T02:24:12.919Z,14.58
2018-06-13T02:26:43.087Z,14.58
2018-06-13T02:29:13.154Z,14.55
2018-06-13T02:31:43.177Z,14.56
2018-06-13T02:34:13.410Z,14.55
2018-06-13T02:36:43.416Z,14.55
2018-06-13T02:39:15.301Z,14.55
2018-06-13T02:41:45.827Z,14.57
2018-06-13T02:44:16.052Z,14.55
2018-06-13T02:46:46.299Z,14.54
2018-06-13T02:49:16.353Z,14.51
2018-06-13T02:51:46.465Z,14.50
2018-06-13T02:54:16.612Z,14.51
2018-06-13T02:56:46.739Z,14.50
2018-06-13T02:59:16.825Z,14.49
2018-06-13T03:01:46.773Z,14.45
2018-06-13T03:04:16.977Z,14.49
2018-06-13T03:06:47.107Z,14.47
2018-06-13T03:09:17.037Z,14.48
2018-06-13T03:11:47.239Z,14.46
2018-06-13T03:14:17.679Z,14.48
2018-06-13T03:16:47.712Z,14.52
2018-06-13T03:19:17.630Z,14.59
2018-06-13T03:21:47.730Z,14.66
2018-06-13T03:24:17.821Z,14.71
2018-06-13T03:26:47.676Z,14.75
2018-06-13T03:29:17.791Z,14.80
2018-06-13T03:31:47.806Z,14.82
2018-06-13T03:34:17.716Z,14.83
2018-06-13T03:36:48.039Z,14.84
2018-06-13T03:39:18.082Z,14.86
2018-06-13T03:41:48.091Z,14.90
2018-06-13T03:44:18.209Z,14.94
2018-06-13T03:46:48.476Z,14.96
2018-06-13T03:49:18.685Z,14.95
2018-06-13T03:51:48.774Z,14.92
2018-06-13T03:54:19.073Z,14.90
2018-06-13T03:56:49.668Z,14.91
2018-06-13T03:59:19.531Z,14.89
2018-06-13T04:01:49.595Z,14.87
2018-06-13T04:04:19.705Z,14.88
2018-06-13T04:06:49.831Z,14.89
2018-06-13T04:09:19.750Z,14.94
2018-06-13T04:11:49.869Z,14.97
2018-06-13T04:14:20.062Z,15.00
2018-06-13T04:16:49.990Z,15.06
2018-06-13T04:19:20.437Z,15.11
2018-06-13T04:21:51.430Z,15.14
2018-06-13T04:24:21.523Z,15.17
2018-06-13T04:26:51.426Z,15.23
2018-06-13T04:29:21.445Z,15.26
2018-06-13T04:31:51.655Z,15.32
2018-06-13T04:34:21.877Z,15.37
2018-06-13T04:36:52.248Z,15.46
2018-06-13T04:39:22.410Z,15.55
2018-06-13T04:41:52.489Z,15.63
2018-06-13T04:44:22.324Z,15.68
2018-06-13T04:46:52.483Z,15.76
2018-06-13T04:49:22.462Z,15.83
2018-06-13T04:51:52.442Z,15.86
2018-06-13T04:54:23.652Z,15.92
2018-06-13T04:56:54.128Z,15.98
2018-06-13T04:59:24.018Z,16.02
2018-06-13T05:01:54.526Z,16.02
2018-06-13T05:04:24.517Z,16.04
2018-06-13T05:06:54.666Z,16.05
2018-06-13T05:09:24.758Z,16.10
2018-06-13T05:11:54.793Z,16.16
2018-06-13T05:14:25.434Z,16.21
2018-06-13T05:16:56.383Z,16.27
2018-06-13T05:19:26.768Z,16.31
2018-06-13T05:21:56.871Z,16.34
2018-06-13T05:24:26.964Z,16.38
2018-06-13T05:26:57.039Z,16.43
2018-06-13T05:29:27.234Z,16.49
2018-06-13T05:31:57.419Z,16.57
2018-06-13T05:34:27.514Z,16.63
2018-06-13T05:36:57.779Z,16.61
2018-06-13T05:39:28.180Z,16.61
2018-06-13T05:41:58.236Z,16.66
2018-06-13T05:44:28.737Z,16.69
2018-06-13T05:46:59.094Z,16.71
2018-06-13T05:49:29.291Z,16.76
2018-06-13T05:51:59.504Z,16.78
2018-06-13T05:54:29.409Z,16.84
2018-06-13T05:56:59.626Z,16.90
2018-06-13T06:00:14.694Z,16.98
2018-06-13T06:02:45.160Z,17.00
2018-06-13T06:05:15.241Z,17.09
2018-06-13T06:07:45.188Z,17.17
2018-06-13T06:10:15.350Z,17.26
2018-06-13T06:12:45.623Z,17.36
2018-06-13T06:15:16.612Z,17.45
2018-06-13T06:17:46.891Z,17.45
2018-06-13T06:20:16.996Z,17.50
2018-06-13T06:22:47.599Z,17.56
2018-06-13T06:25:17.819Z,17.65
2018-06-13T06:27:47.816Z,17.69
2018-06-13T06:30:18.015Z,17.75
2018-06-13T06:32:47.918Z,17.85
2018-06-13T06:35:17.851Z,17.91
2018-06-13T06:37:47.880Z,17.93
2018-06-13T06:40:18.237Z,17.89
2018-06-13T06:42:49.175Z,17.88
2018-06-13T06:45:20.272Z,17.89
2018-06-13T06:47:50.579Z,17.91
2018-06-13T06:50:20.657Z,17.98
2018-06-13T06:52:50.584Z,18.00
2018-06-13T06:55:20.725Z,18.06
2018-06-13T06:57:51.865Z,18.13
2018-06-13T07:00:22.079Z,18.17
2018-06-13T07:02:53.175Z,18.26
2018-06-13T07:05:23.422Z,18.31
2018-06-13T07:07:53.432Z,18.45
2018-06-13T07:10:23.363Z,18.54
2018-06-13T07:12:54.373Z,18.60
2018-06-13T07:15:24.533Z,18.66
2018-06-13T07:17:54.755Z,18.77
2018-06-13T07:20:24.846Z,18.79
2018-06-13T07:22:55.067Z,18.85
2018-06-13T07:25:25.405Z,18.83
2018-06-13T07:27:55.419Z,18.89
2018-06-13T07:30:25.400Z,18.90
2018-06-13T07:32:56.000Z,18.89
2018-06-13T07:35:26.103Z,18.93
2018-06-13T07:37:56.421Z,18.95
2018-06-13T07:40:26.763Z,18.99
2018-06-13T07:42:56.994Z,19.05
2018-06-13T07:45:27.054Z,19.14
2018-06-13T07:47:57.493Z,19.20
2018-06-13T07:50:27.728Z,19.24
2018-06-13T07:52:58.076Z,19.29
2018-06-13T07:55:28.117Z,19.39
2018-06-13T07:57:58.308Z,19.50
2018-06-13T08:00:28.565Z,19.60
2018-06-13T08:02:58.443Z,19.71
2018-06-13T08:05:28.651Z,19.83
2018-06-13T08:07:58.733Z,19.96
2018-06-13T08:10:28.740Z,19.92
2018-06-13T08:12:58.994Z,19.89
2018-06-13T08:15:29.188Z,19.91
2018-06-13T08:17:59.256Z,19.95
2018-06-13T08:20:29.358Z,19.98
2018-06-13T08:22:59.529Z,19.97
2018-06-13T08:25:29.796Z,20.03
2018-06-13T08:27:59.947Z,20.08
2018-06-13T08:30:30.354Z,20.09
2018-06-13T08:33:00.432Z,20.07
2018-06-13T08:35:30.356Z,20.03
2018-06-13T08:38:00.463Z,19.90
2018-06-13T08:40:30.584Z,19.91
2018-06-13T08:43:00.558Z,19.88
2018-06-13T08:45:30.731Z,19.91
2018-06-13T08:48:00.686Z,19.84
2018-06-13T08:50:30.862Z,19.84
2018-06-13T08:53:01.114Z,19.88
2018-06-13T08:55:31.359Z,19.92
2018-06-13T08:58:01.439Z,19.91
2018-06-13T09:00:31.528Z,19.93
2018-06-13T09:03:01.560Z,19.92
2018-06-13T09:05:31.619Z,19.98
2018-06-13T09:08:01.941Z,20.04
2018-06-13T09:10:32.443Z,20.14
2018-06-13T09:13:02.655Z,20.24
2018-06-13T09:15:33.877Z,20.26
2018-06-13T09:18:04.058Z,20.31
2018-06-13T09:20:33.835Z,20.41
2018-06-13T09:23:04.768Z,20.43
2018-06-13T09:25:34.936Z,20.40
2018-06-13T09:28:05.127Z,20.37
2018-06-13T09:30:35.040Z,20.38
2018-06-13T09:33:04.962Z,20.40
2018-06-13T09:35:35.709Z,20.25
2018-06-13T09:38:06.130Z,20.16
2018-06-13T09:40:37.310Z,20.12
2018-06-13T09:43:07.485Z,20.04
2018-06-13T09:45:37.673Z,19.94
2018-06-13T09:48:08.221Z,19.86
2018-06-13T09:50:38.308Z,19.77
2018-06-13T09:53:08.479Z,19.72
2018-06-13T09:55:38.469Z,19.73
2018-06-13T09:58:08.529Z,19.80
2018-06-13T10:00:44.391Z,19.78
2018-06-13T10:03:14.719Z,19.71
2018-06-13T10:05:44.961Z,19.71
2018-06-13T10:08:15.031Z,19.70
2018-06-13T10:10:45.463Z,19.70
2018-06-13T10:13:15.684Z,19.64
2018-06-13T10:15:45.657Z,19.58
2018-06-13T10:18:15.614Z,19.42
2018-06-13T10:20:45.759Z,19.26
2018-06-13T10:23:15.706Z,19.13
2018-06-13T10:25:45.760Z,19.01
2018-06-13T10:28:15.971Z,18.90
2018-06-13T10:30:46.088Z,18.88
2018-06-13T10:33:16.226Z,18.80
2018-06-13T10:35:46.674Z,18.76
2018-06-13T10:38:16.771Z,18.69
2018-06-13T10:40:47.031Z,18.71
2018-06-13T10:43:17.175Z,18.69
2018-06-13T10:45:47.294Z,18.57
2018-06-13T10:48:17.396Z,18.49
2018-06-13T10:50:47.466Z,18.44
2018-06-13T10:53:17.496Z,18.47
2018-06-13T10:55:47.819Z,18.57
2018-06-13T10:58:17.839Z,18.69
2018-06-13T11:00:47.909Z,18.69
2018-06-13T11:03:17.760Z,18.59
2018-06-13T11:05:48.053Z,18.51
2018-06-13T11:08:18.212Z,18.40
2018-06-13T11:10:48.375Z,18.29
2018-06-13T11:13:18.595Z,18.27
2018-06-13T11:15:48.712Z,18.31
2018-06-13T11:18:18.734Z,18.40
2018-06-13T11:20:48.616Z,18.44
2018-06-13T11:23:18.746Z,18.48
2018-06-13T11:25:48.720Z,18.57
2018-06-13T11:28:18.968Z,18.68
2018-06-13T11:30:48.918Z,18.78
2018-06-13T11:33:19.390Z,18.89
2018-06-13T11:35:49.381Z,19.02
2018-06-13T11:38:19.413Z,19.03
2018-06-13T11:40:49.503Z,19.05
2018-06-13T11:43:19.454Z,19.13
2018-06-13T11:45:49.383Z,19.11
2018-06-13T11:48:19.738Z,19.18
2018-06-13T11:50:50.208Z,19.20
2018-06-13T11:53:20.235Z,19.23
2018-06-13T11:55:50.346Z,19.35
2018-06-13T11:58:20.890Z,19.42
2018-06-13T12:00:50.880Z,19.49
2018-06-13T12:03:21.924Z,19.46
2018-06-13T12:05:52.269Z,19.39
2018-06-13T12:08:22.390Z,19.29
2018-06-13T12:10:52.989Z,19.26
2018-06-13T12:13:23.352Z,19.21
2018-06-13T12:15:53.807Z,19.28
2018-06-13T12:18:24.017Z,19.40
2018-06-13T12:20:54.171Z,19.53
2018-06-13T12:23:24.559Z,19.71
2018-06-13T12:25:54.860Z,19.79
2018-06-13T12:28:25.114Z,20.08
2018-06-13T12:30:55.118Z,20.36
2018-06-13T12:33:25.320Z,20.59
2018-06-13T12:35:55.541Z,20.75
2018-06-13T12:38:25.715Z,20.94
2018-06-13T12:40:55.985Z,21.14
2018-06-13T12:43:25.964Z,21.47
2018-06-13T12:45:55.916Z,21.86
2018-06-13T12:48:25.851Z,22.38
2018-06-13T12:50:55.782Z,22.54
2018-06-13T12:53:25.747Z,22.68
2018-06-13T12:55:56.060Z,22.55
2018-06-13T12:58:26.213Z,22.44
2018-06-13T13:00:56.259Z,22.39
2018-06-13T13:03:26.291Z,22.26
2018-06-13T13:05:56.587Z,22.15
2018-06-13T13:08:26.849Z,22.15
2018-06-13T13:10:57.046Z,22.22
2018-06-13T13:13:27.148Z,22.39
2018-06-13T13:15:56.985Z,22.22
2018-06-13T13:18:26.986Z,21.91
2018-06-13T13:20:56.944Z,21.68
2018-06-13T13:23:27.071Z,21.49
2018-06-13T13:25:57.217Z,21.41
2018-06-13T13:28:28.541Z,21.29
2018-06-13T13:30:58.599Z,21.26
2018-06-13T13:33:28.773Z,21.20
2018-06-13T13:35:59.764Z,21.25
2018-06-13T13:38:30.105Z,21.17
2018-06-13T13:41:00.223Z,21.08
2018-06-13T13:43:30.504Z,21.01
2018-06-13T13:46:00.793Z,20.91
2018-06-13T13:48:30.865Z,20.80
2018-06-13T13:51:01.109Z,20.60
2018-06-13T13:53:31.196Z,20.46
2018-06-13T13:56:01.311Z,20.44
2018-06-13T13:58:31.702Z,20.34
2018-06-13T14:01:01.977Z,20.24
2018-06-13T14:03:32.184Z,20.12
2018-06-13T14:06:02.636Z,20.08
2018-06-13T14:08:32.784Z,20.00
2018-06-13T14:11:03.042Z,19.93
2018-06-13T14:13:33.139Z,19.88
2018-06-13T14:16:03.314Z,19.86
2018-06-13T14:18:33.738Z,19.81
2018-06-13T14:21:03.696Z,19.82
2018-06-13T14:23:33.761Z,19.86
2018-06-13T14:26:03.842Z,19.91
2018-06-13T14:28:34.493Z,19.89
2018-06-13T14:31:04.622Z,19.89
2018-06-13T14:33:34.840Z,19.85
2018-06-13T14:36:04.875Z,19.85
2018-06-13T14:38:35.366Z,19.80
2018-06-13T14:41:06.045Z,19.80
2018-06-13T14:43:36.245Z,19.76
2018-06-13T14:46:07.502Z,19.80
2018-06-13T14:48:37.718Z,19.84
2018-06-13T14:51:07.739Z,19.74
2018-06-13T14:53:37.974Z,19.69
2018-06-13T14:56:13.138Z,19.61
2018-06-13T14:58:43.424Z,19.54
2018-06-13T15:01:13.566Z,19.47
2018-06-13T15:03:43.901Z,19.50
2018-06-13T15:06:14.202Z,19.50
2018-06-13T15:08:44.386Z,19.53
2018-06-13T15:11:14.833Z,19.54
2018-06-13T15:13:44.992Z,19.57
2018-06-13T15:16:15.039Z,19.75
2018-06-13T15:18:45.500Z,19.93
2018-06-13T15:21:15.643Z,19.91
2018-06-13T15:23:45.640Z,19.68
2018-06-13T15:26:15.779Z,19.61
2018-06-13T15:28:46.019Z,19.39
2018-06-13T15:31:16.105Z,19.34
2018-06-13T15:33:46.221Z,19.34
2018-06-13T15:36:16.525Z,19.34
2018-06-13T15:38:46.812Z,19.34
2018-06-13T15:41:17.004Z,19.25
2018-06-13T15:43:47.194Z,19.18
2018-06-13T15:46:17.372Z,19.17
2018-06-13T15:48:47.937Z,19.14
2018-06-13T15:51:18.019Z,19.10
2018-06-13T15:53:48.128Z,19.12
2018-06-13T15:56:18.078Z,19.30
2018-06-13T15:58:48.409Z,19.70
2018-06-13T16:01:18.673Z,20.00
2018-06-13T16:03:48.704Z,20.03
2018-06-13T16:06:18.855Z,20.04
2018-06-13T16:08:49.083Z,19.99
2018-06-13T16:11:19.395Z,19.83
2018-06-13T16:13:49.297Z,19.60
2018-06-13T16:16:19.397Z,19.56
2018-06-13T16:18:49.396Z,19.49
2018-06-13T16:21:19.958Z,19.51
2018-06-13T16:23:49.992Z,19.56
2018-06-13T16:26:20.131Z,19.58
2018-06-13T16:28:50.612Z,19.53
2018-06-13T16:31:21.391Z,19.50
2018-06-13T16:33:51.425Z,19.34
2018-06-13T16:36:21.634Z,19.25
2018-06-13T16:38:52.646Z,19.22
2018-06-13T16:41:24.526Z,19.04
2018-06-13T16:43:56.033Z,18.90
2018-06-13T16:46:27.298Z,18.90
2018-06-13T16:48:59.040Z,18.83
2018-06-13T16:51:40.057Z,18.72
2018-06-13T16:54:16.759Z,18.57
2018-06-13T16:56:48.813Z,18.48
2018-06-13T16:59:21.845Z,18.39
2018-06-13T17:01:54.535Z,18.34
2018-06-13T17:04:27.371Z,18.37
2018-06-13T17:07:00.212Z,18.46
2018-06-13T17:09:33.061Z,18.42
2018-06-13T17:12:05.779Z,18.34
2018-06-13T17:14:38.779Z,18.20
2018-06-13T17:17:11.507Z,18.09
2018-06-13T17:19:44.538Z,18.03
2018-06-13T17:22:17.600Z,18.00
2018-06-13T17:24:50.431Z,17.97
2018-06-13T17:27:23.307Z,18.00
2018-06-13T17:29:57.055Z,18.03
2018-06-13T17:32:29.554Z,18.04
2018-06-13T17:35:02.495Z,18.08
2018-06-13T17:37:35.246Z,18.10
2018-06-13T17:40:08.305Z,18.08
2018-06-13T17:42:41.226Z,18.07
2018-06-13T17:45:13.968Z,18.01
2018-06-13T17:47:46.869Z,17.92
2018-06-13T17:50:19.871Z,17.86
2018-06-13T17:52:52.870Z,17.79
2018-06-13T17:55:25.991Z,17.72
2018-06-13T17:57:59.082Z,17.69
2018-06-13T18:00:32.033Z,17.68
2018-06-13T18:03:04.827Z,17.67
2018-06-13T18:05:37.588Z,17.63
2018-06-13T18:08:11.828Z,17.58
2018-06-13T18:10:44.838Z,17.52
2018-06-13T18:13:18.568Z,17.50
2018-06-13T18:15:51.844Z,17.47
2018-06-13T18:18:24.603Z,17.45
2018-06-13T18:20:57.707Z,17.41
2018-06-13T18:23:31.585Z,17.38
2018-06-13T18:26:04.470Z,17.34
2018-06-13T18:28:37.615Z,17.31
2018-06-13T18:31:11.685Z,17.26
2018-06-13T18:33:46.258Z,17.23
2018-06-13T18:36:19.787Z,17.22
2018-06-13T18:38:52.384Z,17.19
2018-06-13T18:41:25.214Z,17.17
2018-06-13T18:43:57.955Z,17.14
2018-06-13T18:46:30.551Z,17.13
2018-06-13T18:49:03.621Z,17.10
2018-06-13T18:51:36.562Z,17.06
2018-06-13T18:54:09.310Z,17.02
2018-06-13T18:56:42.362Z,17.01
2018-06-13T18:59:15.406Z,16.97
2018-06-13T19:01:48.193Z,16.95
2018-06-13T19:04:20.904Z,16.94
2018-06-13T19:06:54.096Z,16.91
2018-06-13T19:09:27.344Z,16.89
2018-06-13T19:12:01.185Z,16.87
2018-06-13T19:14:33.757Z,16.88
2018-06-13T19:17:07.760Z,16.87
2018-06-13T19:19:42.105Z,16.85
2018-06-13T19:22:14.981Z,16.85
2018-06-13T19:24:47.912Z,16.87
2018-06-13T19:27:20.964Z,16.89
2018-06-13T19:29:53.934Z,16.91
2018-06-13T19:32:26.913Z,16.92
2018-06-13T19:35:00.033Z,16.93
2018-06-13T19:37:32.875Z,16.94
2018-06-13T19:40:05.805Z,16.94
2018-06-13T19:42:37.425Z,16.94
2018-06-13T19:45:08.659Z,16.94
2018-06-13T19:47:44.272Z,16.91
2018-06-13T19:50:15.219Z,16.92
2018-06-13T19:52:50.424Z,16.89
2018-06-13T19:55:25.432Z,16.88
2018-06-13T19:57:55.556Z,16.85
2018-06-13T20:00:25.703Z,16.84
2018-06-13T20:03:00.766Z,16.80
2018-06-13T20:05:35.796Z,16.78
2018-06-13T20:08:05.955Z,16.76
2018-06-13T20:10:36.209Z,16.68
2018-06-13T20:13:11.346Z,16.70
2018-06-13T20:15:46.280Z,16.68
2018-06-13T20:18:22.316Z,16.65
2018-06-13T20:20:53.269Z,16.61
2018-06-13T20:23:23.669Z,16.58
2018-06-13T20:25:58.637Z,16.52
2018-06-13T20:28:33.499Z,16.45
2018-06-13T20:31:08.794Z,16.36
2018-06-13T20:33:38.903Z,16.34
2018-06-13T20:36:09.236Z,16.28
2018-06-13T20:38:39.562Z,16.23
2018-06-13T20:41:09.893Z,16.20
2018-06-13T20:43:41.008Z,16.17
2018-06-13T20:46:11.429Z,16.13
2018-06-13T20:48:42.727Z,16.14
2018-06-13T20:51:12.950Z,16.14
2018-06-13T20:53:43.151Z,16.12
2018-06-13T20:56:13.392Z,16.12
2018-06-13T20:58:43.662Z,16.10
2018-06-13T21:01:13.728Z,16.09
2018-06-13T21:03:43.808Z,16.11
2018-06-13T21:06:13.974Z,16.11
2018-06-13T21:08:45.358Z,16.12
2018-06-13T21:11:15.639Z,16.14
2018-06-13T21:13:45.990Z,16.15
2018-06-13T21:16:16.556Z,16.15
2018-06-13T21:18:46.932Z,16.17
2018-06-13T21:21:17.114Z,16.19
2018-06-13T21:23:47.309Z,16.19
2018-06-13T21:26:17.603Z,16.20
2018-06-13T21:28:48.857Z,16.20
2018-06-13T21:31:18.872Z,16.18
2018-06-13T21:33:49.104Z,16.18
2018-06-13T21:36:19.556Z,16.19
2018-06-13T21:38:49.460Z,16.18
2018-06-13T21:41:19.638Z,16.19
2018-06-13T21:43:50.428Z,16.17
2018-06-13T21:46:20.590Z,16.17
2018-06-13T21:48:50.559Z,16.17
2018-06-13T21:51:20.700Z,16.17
2018-06-13T21:53:50.920Z,16.17
2018-06-13T21:56:20.991Z,16.17
2018-06-13T21:58:51.164Z,16.17
2018-06-13T22:01:21.373Z,16.16
2018-06-13T22:03:51.727Z,16.13
2018-06-13T22:06:22.845Z,16.14
2018-06-13T22:08:52.774Z,16.12
2018-06-13T22:11:22.789Z,16.08
2018-06-13T22:13:53.066Z,16.08
2018-06-13T22:16:23.232Z,16.05
2018-06-13T22:18:53.491Z,16.03
2018-06-13T22:21:23.732Z,16.01
2018-06-13T22:23:53.751Z,16.00
2018-06-13T22:26:23.970Z,15.98
2018-06-13T22:28:54.137Z,15.96
2018-06-13T22:31:24.145Z,15.97
2018-06-13T22:33:54.350Z,15.92
2018-06-13T22:36:24.364Z,15.90
2018-06-13T22:38:54.222Z,15.84
2018-06-13T22:41:24.290Z,15.79
2018-06-13T22:43:54.577Z,15.73
2018-06-13T22:46:24.741Z,15.69
2018-06-13T22:48:54.731Z,15.65
2018-06-13T22:51:25.992Z,15.64
2018-06-13T22:53:56.252Z,15.61
2018-06-13T22:56:26.792Z,15.58
2018-06-13T22:58:57.029Z,15.52
2018-06-13T23:01:27.267Z,15.47
2018-06-13T23:03:57.182Z,15.43
2018-06-13T23:06:27.441Z,15.39
2018-06-13T23:08:58.642Z,15.37
2018-06-13T23:11:28.786Z,15.35
2018-06-13T23:14:00.032Z,15.34
2018-06-13T23:16:30.180Z,15.33
2018-06-13T23:19:00.272Z,15.33
2018-06-13T23:21:30.501Z,15.33
2018-06-13T23:24:00.343Z,15.31
2018-06-13T23:26:30.414Z,15.27
2018-06-13T23:29:00.691Z,15.22
2018-06-13T23:31:30.763Z,15.18
2018-06-13T23:34:01.148Z,15.12
2018-06-13T23:36:31.296Z,15.06
2018-06-13T23:39:01.403Z,15.00
2018-06-13T23:41:31.427Z,14.94
2018-06-13T23:44:01.496Z,14.88
2018-06-13T23:46:31.811Z,14.83
2018-06-13T23:49:01.821Z,14.81
2018-06-13T23:51:31.721Z,14.76
2018-06-13T23:54:01.865Z,14.72
2018-06-13T23:56:31.712Z,14.69
2018-06-13T23:59:01.829Z,14.67
